BWU weather

Sydney Bankstown Airport
Sydney, New South Wales, Australia

Public forecast

Using degrees Celsius for public forecast. Weather courtesy of forecast.io.

METAR (pilot weather report)

Closest report is Sydney Kingsford Smith International Airport, 9.5 nm (17.6 km) E. Retrieved 2018/10/20 13:30 UTC (11 minutes ago):

YSSY 201330Z 28005KT 9999 FEW017 SCT100 BKN240 19/17 Q1013 FM1345 19008KT 9999 -SHRA SCT010 SCT040 FM1430 18015G25KT 9999 -SHRA SCT010 BKN015 INTER 1330/1430 5000 SHRA BKN020 TEMPO 1430/1630 4000 SHRA BKN010 FM1430 MOD TURB BLW 5000FT

TAF (pilot weather forecast)

Forecast is more than 12 hours old.

Closest forecast is Sydney Kingsford Smith International Airport, 9.5 nm (17.6 km) E. Retrieved 2018/10/19 00:00 UTC (2 days ago):

TAF YSSY 192323Z 2000/2012 04010KT 9999 -SHRA SCT040 FM200900 21008KT 9999 -SHRA SCT010 BKN020 PROB40 TEMPO 2003/2012 VRB25G40KT 3000 TSRA BKN010 SCT035CB